Terminal Aerodrome Forecast
Issued by NWS Tulsa, OK

Current Version | Previous Version | Text Only | Print | Product List | Glossary On
Versions: 1 2 3 4 5 6 7 8 9 10 11 12
000
FTUS44 KTSA 021720
TAFFSM
TAF
KFSM 021720Z 0218/0318 VRB03KT P6SM SCT100
     FM022000 23005KT P6SM SCT100
     FM030200 VRB03KT P6SM FEW100=

USA.gov is the U.S. government's official web portal to all federal, state and local government web resources and services.